Time;durP1;ratioP1;P1;durP2;ratioP2;P2;SDS_P1;SDS_P2;PMS_P1;PMS_P2;Temp;Humidity;BMP_temperature;BMP_pressure;BME280_temperature;BME280_humidity;BME280_pressure;Samples;Min_cycle;Max_cycle;Signal;HPM_P1;HPM_P2
2022/03/23 00:01:15;;;;;;;25.20;13.15;;;;;;;6.84;99.87;102619.34;4905576;29;20093;-71
2022/03/23 00:04:01;;;;;;;26.17;12.40;;;;;;;6.74;99.98;102626.81;4919856;29;20175;-72
2022/03/23 00:06:47;;;;;;;25.25;12.73;;;;;;;6.58;100.00;102616.81;4920022;29;20032;-72
2022/03/23 00:09:33;;;;;;;24.70;13.20;;;;;;;6.87;100.00;102623.75;4906070;29;20039;-72
2022/03/23 00:12:18;;;;;;;24.98;13.10;;;;;;;6.87;99.02;102621.16;4919432;29;20052;-72
2022/03/23 00:15:06;;;;;;;21.63;13.32;;;;;;;6.80;100.00;102617.50;4919206;29;20469;-72
2022/03/23 00:17:52;;;;;;;28.20;16.35;;;;;;;6.81;99.10;102613.13;4905880;29;20044;-72
2022/03/23 00:20:41;;;;;;;27.30;14.68;;;;;;;6.36;100.00;102609.22;4905794;29;20038;-72
2022/03/23 00:23:27;;;;;;;27.67;14.98;;;;;;;6.60;100.00;102609.94;4918817;29;20478;-71
2022/03/23 00:26:13;;;;;;;26.40;14.68;;;;;;;6.92;100.00;102615.22;4919382;29;20028;-72
2022/03/23 00:28:59;;;;;;;19.95;12.13;;;;;;;6.77;100.00;102608.69;4919851;29;20368;-72
2022/03/23 00:31:45;;;;;;;20.98;11.77;;;;;;;6.76;100.00;102606.94;4918939;29;20035;-71
2022/03/23 00:34:30;;;;;;;21.42;12.27;;;;;;;7.17;98.50;102601.09;4905505;29;20074;-72
2022/03/23 00:37:17;;;;;;;25.60;13.40;;;;;;;6.87;100.00;102603.75;4919008;29;20032;-73
2022/03/23 00:40:03;;;;;;;22.40;12.65;;;;;;;6.88;100.00;102607.28;4919484;29;20364;-73
2022/03/23 00:42:49;;;;;;;18.58;11.93;;;;;;;7.11;99.43;102600.97;4918612;29;20051;-72
2022/03/23 00:45:35;;;;;;;22.88;13.85;;;;;;;6.92;100.00;102594.38;4905294;29;20036;-72
2022/03/23 00:48:20;;;;;;;26.85;14.13;;;;;;;7.10;100.00;102600.06;4919053;29;20043;-72
2022/03/23 00:51:06;;;;;;;21.70;13.48;;;;;;;6.69;100.00;102599.78;4919860;29;20039;-72
2022/03/23 00:53:52;;;;;;;27.35;13.80;;;;;;;6.74;100.00;102609.47;4904838;29;20028;-72
2022/03/23 00:56:38;;;;;;;24.23;13.75;;;;;;;6.99;100.00;102600.63;4919154;29;20056;-72
2022/03/23 00:59:24;;;;;;;23.30;13.13;;;;;;;6.98;100.00;102599.75;4905555;29;20032;-72
2022/03/23 01:02:10;;;;;;;23.17;13.75;;;;;;;6.99;100.00;102596.28;4918458;29;20028;-72
2022/03/23 01:04:56;;;;;;;21.77;14.07;;;;;;;6.68;100.00;102601.50;4921709;29;20111;-73
2022/03/23 01:07:42;;;;;;;22.40;13.38;;;;;;;7.00;100.00;102597.19;4923072;29;20484;-72
2022/03/23 01:10:29;;;;;;;21.42;13.70;;;;;;;6.97;100.00;102602.28;4922639;29;20366;-73
2022/03/23 01:13:15;;;;;;;24.23;14.75;;;;;;;6.91;100.00;102600.41;4908860;29;20127;-72
2022/03/23 01:16:01;;;;;;;25.20;14.85;;;;;;;6.92;100.00;102598.69;4922762;29;20393;-73
2022/03/23 01:18:46;;;;;;;28.83;14.27;;;;;;;6.61;100.00;102609.09;4922986;29;20035;-72
2022/03/23 01:21:32;;;;;;;23.42;14.30;;;;;;;6.49;100.00;102607.03;4922710;29;20107;-73
2022/03/23 01:24:18;;;;;;;24.73;14.77;;;;;;;6.48;100.00;102613.09;4922770;29;20074;-73
2022/03/23 01:27:04;;;;;;;26.65;15.43;;;;;;;6.38;100.00;102604.97;4922161;29;20028;-72
2022/03/23 01:29:50;;;;;;;24.63;14.80;;;;;;;5.93;100.00;102609.63;4922763;29;20052;-72
2022/03/23 01:32:36;;;;;;;28.00;15.13;;;;;;;5.68;100.00;102604.47;4922104;29;20036;-72
2022/03/23 01:35:21;;;;;;;26.08;15.85;;;;;;;6.00;100.00;102596.00;4922569;29;20035;-72
2022/03/23 01:38:07;;;;;;;25.80;14.88;;;;;;;5.58;100.00;102606.72;4921986;29;20035;-72
2022/03/23 01:40:53;;;;;;;26.13;15.95;;;;;;;5.87;100.00;102603.38;4922934;29;20039;-72
2022/03/23 01:43:39;;;;;;;23.63;16.13;;;;;;;5.86;100.00;102604.22;4908560;29;20038;-72
2022/03/23 01:46:26;;;;;;;30.05;15.27;;;;;;;5.70;100.00;102601.91;4922878;29;20031;-72
2022/03/23 01:49:11;;;;;;;31.05;16.85;;;;;;;5.61;100.00;102601.59;4908320;29;20136;-72
2022/03/23 01:51:57;;;;;;;28.25;16.15;;;;;;;5.86;100.00;102604.22;4921961;29;20119;-72
2022/03/23 01:54:44;;;;;;;28.13;16.33;;;;;;;5.71;100.00;102609.78;4921892;29;20040;-71
2022/03/23 01:57:30;;;;;;;32.28;16.83;;;;;;;5.50;100.00;102603.00;4921702;29;20521;-72
2022/03/23 02:00:16;;;;;;;26.30;17.63;;;;;;;5.34;100.00;102607.66;4921133;29;20477;-71
2022/03/23 02:03:03;;;;;;;33.05;18.33;;;;;;;5.55;100.00;102607.50;4907949;29;20028;-72
2022/03/23 02:05:48;;;;;;;32.95;18.85;;;;;;;5.41;100.00;102608.75;4921774;29;20141;-72
2022/03/23 02:08:34;;;;;;;30.08;18.48;;;;;;;5.20;100.00;102611.50;4921479;29;20038;-72
2022/03/23 02:11:20;;;;;;;32.15;19.95;;;;;;;5.25;100.00;102602.16;4921955;29;20032;-73
2022/03/23 02:14:06;;;;;;;40.22;19.63;;;;;;;5.26;100.00;102603.94;4920775;29;20108;-73
2022/03/23 02:16:52;;;;;;;33.00;19.25;;;;;;;5.09;100.00;102601.56;4907764;29;20032;-72
2022/03/23 02:19:37;;;;;;;34.65;20.85;;;;;;;5.11;100.00;102611.19;4921249;29;20043;-72
2022/03/23 02:22:23;;;;;;;32.83;19.27;;;;;;;5.04;100.00;102608.34;4921927;29;20091;-72
2022/03/23 02:25:09;;;;;;;34.88;20.10;;;;;;;5.27;100.00;102602.22;4921184;29;20036;-72
2022/03/23 02:27:56;;;;;;;30.52;19.67;;;;;;;5.30;100.00;102602.31;4921282;29;20032;-71
2022/03/23 02:30:41;;;;;;;31.13;19.42;;;;;;;5.55;100.00;102606.63;4921219;29;20028;-71
2022/03/23 02:33:28;;;;;;;34.47;20.45;;;;;;;5.46;100.00;102607.19;4907582;29;20024;-72
2022/03/23 02:36:13;;;;;;;35.05;20.58;;;;;;;4.96;100.00;102602.88;4907272;29;20099;-72
2022/03/23 02:38:59;;;;;;;42.33;22.65;;;;;;;4.94;100.00;102614.91;4921105;29;20103;-72
2022/03/23 02:41:46;;;;;;;46.13;24.00;;;;;;;4.81;100.00;102611.81;4921250;29;20024;-72
2022/03/23 02:44:32;;;;;;;41.20;23.05;;;;;;;5.03;100.00;102607.44;4920736;29;20024;-72
2022/03/23 02:47:18;;;;;;;44.95;25.52;;;;;;;5.31;100.00;102607.56;4907014;29;20028;-73
2022/03/23 02:50:04;;;;;;;42.05;24.95;;;;;;;5.35;100.00;102612.03;4920721;29;20184;-73
2022/03/23 03:02:33;;;;;;;43.65;29.30;;;;;;;4.85;100.00;102605.91;4920303;29;20374;-74
2022/03/23 03:05:18;;;;;;;47.95;26.98;;;;;;;4.83;100.00;102600.66;4907355;29;20044;-72
2022/03/23 03:11:09;;;;;;;46.72;23.67;;;;;;;4.50;100.00;102599.44;4920408;29;20035;-72
2022/03/23 03:13:55;;;;;;;35.15;24.17;;;;;;;5.06;100.00;102596.25;4920508;29;20056;-72
2022/03/23 03:16:40;;;;;;;40.38;25.52;;;;;;;4.74;100.00;102594.25;4920499;29;20028;-72
2022/03/23 03:19:26;;;;;;;38.05;23.90;;;;;;;4.25;100.00;102601.97;4920802;29;20472;-72
2022/03/23 03:22:12;;;;;;;41.33;22.70;;;;;;;3.64;100.00;102604.69;4906539;29;20032;-72
2022/03/23 03:24:57;;;;;;;41.65;24.27;;;;;;;3.93;100.00;102604.13;4906413;29;20059;-71
2022/03/23 03:27:44;;;;;;;37.20;24.50;;;;;;;4.20;100.00;102603.50;4920095;29;20100;-72
2022/03/23 03:30:30;;;;;;;39.53;25.20;;;;;;;4.26;100.00;102603.72;4920979;29;20455;-74
2022/03/23 03:33:15;;;;;;;46.13;25.02;;;;;;;4.11;100.00;102594.47;4920687;29;20047;-72
2022/03/23 03:36:03;;;;;;;36.65;23.75;;;;;;;4.65;100.00;102600.00;4920677;29;20020;-72
2022/03/23 03:38:49;;;;;;;40.08;23.52;;;;;;;4.51;100.00;102598.63;4919861;29;20031;-73
2022/03/23 03:41:35;;;;;;;40.85;23.95;;;;;;;4.18;100.00;102592.16;4919997;29;20110;-73
2022/03/23 03:44:20;;;;;;;36.45;21.88;;;;;;;4.36;100.00;102595.47;4919762;29;20508;-71
2022/03/23 03:47:06;;;;;;;42.40;23.85;;;;;;;4.01;100.00;102595.84;4920336;29;20035;-72
2022/03/23 03:49:52;;;;;;;39.58;23.42;;;;;;;3.67;100.00;102597.03;4919484;29;20055;-72
2022/03/23 03:52:38;;;;;;;40.63;21.38;;;;;;;3.26;100.00;102592.75;4919844;29;20430;-72
2022/03/23 03:55:23;;;;;;;40.03;22.42;;;;;;;3.22;100.00;102598.63;4919416;29;20028;-71
2022/03/23 03:58:12;;;;;;;37.80;22.45;;;;;;;3.24;100.00;102598.69;4920059;29;20027;-72
2022/03/23 04:00:58;;;;;;;39.78;23.05;;;;;;;3.41;100.00;102598.56;4906534;29;20449;-73
2022/03/23 04:03:44;;;;;;;39.20;21.65;;;;;;;3.23;100.00;102592.63;4919574;29;20032;-71
2022/03/23 04:06:29;;;;;;;38.05;22.30;;;;;;;3.38;100.00;102593.25;4919193;29;20107;-72
2022/03/23 04:09:15;;;;;;;41.55;22.13;;;;;;;3.53;100.00;102593.88;4919890;29;20445;-72
2022/03/23 04:12:01;;;;;;;35.45;21.23;;;;;;;3.57;100.00;102597.47;4919963;29;20083;-72
2022/03/23 04:14:47;;;;;;;36.65;20.33;;;;;;;3.74;100.00;102604.25;4919694;29;20086;-71
2022/03/23 04:17:33;;;;;;;35.53;20.40;;;;;;;3.56;100.00;102604.38;4920013;29;20028;-71
2022/03/23 04:20:22;;;;;;;34.13;21.20;;;;;;;3.53;100.00;102600.75;4919735;29;20095;-71
2022/03/23 04:23:08;;;;;;;39.78;24.77;;;;;;;3.05;100.00;102612.56;4920008;29;20484;-72
2022/03/23 04:25:55;;;;;;;45.28;26.55;;;;;;;3.03;100.00;102611.63;4919561;29;20115;-72
2022/03/23 04:28:41;;;;;;;56.80;28.48;;;;;;;3.25;100.00;102601.34;4919790;29;20028;-72
2022/03/23 04:31:27;;;;;;;51.17;30.38;;;;;;;3.18;100.00;102601.91;4918964;29;20048;-71
2022/03/23 04:34:12;;;;;;;59.80;34.20;;;;;;;3.10;100.00;102613.63;4905358;29;20035;-72
2022/03/23 04:36:58;;;;;;;61.33;34.47;;;;;;;2.79;100.00;102612.25;4918957;29;20039;-72
2022/03/23 04:39:44;;;;;;;53.97;31.27;;;;;;;2.87;100.00;102619.56;4905335;29;20028;-71
2022/03/23 04:42:30;;;;;;;54.08;30.98;;;;;;;2.92;100.00;102605.09;4919099;29;20024;-73
2022/03/23 04:45:16;;;;;;;55.33;29.40;;;;;;;3.11;100.00;102599.91;4918968;29;20028;-74
2022/03/23 04:48:02;;;;;;;60.83;30.45;;;;;;;3.36;100.00;102602.69;4919027;29;20032;-73
2022/03/23 04:50:48;;;;;;;60.50;29.38;;;;;;;3.44;100.00;102605.56;4918157;29;20033;-72
2022/03/23 04:53:34;;;;;;;60.20;29.75;;;;;;;3.49;100.00;102607.53;4918945;29;20040;-71
2022/03/23 04:56:19;;;;;;;64.43;32.10;;;;;;;3.56;100.00;102608.66;4918969;29;20423;-75
2022/03/23 04:59:05;;;;;;;62.17;31.05;;;;;;;3.39;100.00;102618.38;4919766;29;20115;-72
2022/03/23 05:01:51;;;;;;;55.60;26.92;;;;;;;3.27;100.00;102609.19;4918619;29;20101;-72
2022/03/23 05:04:37;;;;;;;56.30;30.50;;;;;;;3.54;100.00;102611.19;4918898;29;20025;-72
2022/03/23 05:07:23;;;;;;;60.35;32.47;;;;;;;3.51;100.00;102605.91;4904807;29;20032;-74
2022/03/23 05:10:11;;;;;;;63.47;31.65;;;;;;;3.70;100.00;102612.72;4918832;29;20032;-72
2022/03/23 05:12:57;;;;;;;53.72;30.05;;;;;;;3.65;100.00;102620.31;4918487;29;20024;-72
2022/03/23 05:15:43;;;;;;;49.13;28.40;;;;;;;3.55;100.00;102620.75;4918667;29;20072;-71
2022/03/23 05:18:29;;;;;;;45.03;26.00;;;;;;;3.38;100.00;102623.47;4918789;29;20085;-73
2022/03/23 05:21:15;;;;;;;38.33;23.25;;;;;;;3.62;100.00;102630.53;4918598;29;20096;-71
2022/03/23 05:24:01;;;;;;;41.90;22.75;;;;;;;3.59;100.00;102634.72;4904680;29;20110;-71
2022/03/23 05:26:46;;;;;;;37.35;21.02;;;;;;;3.65;100.00;102633.25;4918891;29;20513;-73
2022/03/23 05:29:32;;;;;;;41.15;22.95;;;;;;;3.81;100.00;102634.75;4918572;29;20032;-72
2022/03/23 05:32:18;;;;;;;39.33;21.55;;;;;;;3.45;100.00;102641.91;4918659;29;20076;-71
2022/03/23 05:35:05;;;;;;;42.80;22.35;;;;;;;3.83;100.00;102646.97;4918500;29;20473;-71
2022/03/23 05:37:51;;;;;;;34.08;20.98;;;;;;;4.06;100.00;102647.91;4919058;29;20385;-71
2022/03/23 05:40:37;;;;;;;43.22;21.38;;;;;;;3.91;100.00;102642.97;4905005;29;20039;-72
2022/03/23 05:43:22;;;;;;;36.28;19.88;;;;;;;3.96;100.00;102654.41;4918696;29;20024;-71
2022/03/23 05:46:08;;;;;;;35.25;19.70;;;;;;;4.00;100.00;102650.22;4918805;29;20067;-71
2022/03/23 05:48:54;;;;;;;36.35;19.77;;;;;;;4.02;100.00;102657.25;4918256;29;20111;-72
2022/03/23 05:51:40;;;;;;;37.97;21.05;;;;;;;3.93;100.00;102658.56;4922764;29;20385;-71
2022/03/23 05:54:26;;;;;;;37.83;22.40;;;;;;;4.01;100.00;102652.88;4922096;29;20036;-72
2022/03/23 05:57:12;;;;;;;33.60;21.88;;;;;;;3.95;100.00;102652.63;4908522;29;20035;-72
2022/03/23 05:59:57;;;;;;;39.63;20.50;;;;;;;3.75;100.00;102650.97;4921949;29;20047;-71
2022/03/23 06:02:43;;;;;;;36.35;19.80;;;;;;;3.72;100.00;102655.13;4921909;29;20034;-72
2022/03/23 06:05:29;;;;;;;33.50;21.77;;;;;;;4.10;100.00;102663.63;4922555;29;20028;-72
2022/03/23 06:08:14;;;;;;;32.08;20.17;;;;;;;3.93;100.00;102659.47;4921827;29;20032;-71
2022/03/23 06:11:00;;;;;;;35.20;20.83;;;;;;;4.20;100.00;102660.56;4921982;29;20099;-71
2022/03/23 06:13:46;;;;;;;41.90;21.67;;;;;;;4.51;100.00;102671.28;4921160;29;20112;-71
2022/03/23 06:16:32;;;;;;;38.22;22.73;;;;;;;4.34;100.00;102677.53;4921728;29;20063;-72
2022/03/23 06:19:18;;;;;;;39.45;20.77;;;;;;;4.56;100.00;102664.59;4921160;29;20036;-71
2022/03/23 06:22:08;;;;;;;36.33;22.42;;;;;;;4.79;100.00;102665.44;4921964;29;20028;-71
2022/03/23 06:24:53;;;;;;;33.33;20.63;;;;;;;4.88;100.00;102661.47;4921846;29;20116;-70
2022/03/23 06:27:39;;;;;;;38.55;20.58;;;;;;;4.66;100.00;102664.09;4908962;29;20024;-72
2022/03/23 06:30:25;;;;;;;32.47;19.20;;;;;;;4.53;100.00;102666.16;4907450;29;20425;-72
2022/03/23 06:33:11;;;;;;;37.60;18.15;;;;;;;4.80;100.00;102667.19;4921272;29;20039;-71
2022/03/23 06:35:57;;;;;;;32.80;18.48;;;;;;;4.78;100.00;102668.84;4921671;29;20028;-72
2022/03/23 06:38:43;;;;;;;31.92;16.95;;;;;;;5.08;100.00;102670.84;4921349;29;20028;-71
2022/03/23 06:41:29;;;;;;;31.83;16.65;;;;;;;5.13;100.00;102668.41;4921335;29;20024;-71
2022/03/23 06:44:16;;;;;;;24.27;14.45;;;;;;;5.51;100.00;102661.94;4920531;29;20065;-70
2022/03/23 06:47:01;;;;;;;26.55;15.45;;;;;;;5.80;100.00;102662.06;4921568;29;20032;-72
2022/03/23 06:49:47;;;;;;;26.23;14.52;;;;;;;5.90;100.00;102658.09;4920645;29;20031;-71
2022/03/23 06:52:33;;;;;;;27.20;14.70;;;;;;;6.22;100.00;102652.19;4920550;29;20040;-72
2022/03/23 06:55:19;;;;;;;24.52;12.68;;;;;;;6.31;100.00;102655.06;4920659;29;20047;-73
2022/03/23 06:58:05;;;;;;;24.67;13.73;;;;;;;6.32;100.00;102651.63;4920492;29;20039;-72
2022/03/23 07:00:51;;;;;;;25.98;14.63;;;;;;;6.50;100.00;102658.25;4906503;29;20075;-72
2022/03/23 07:03:37;;;;;;;26.30;13.63;;;;;;;6.98;100.00;102657.06;4921230;29;20126;-72
2022/03/23 07:06:22;;;;;;;24.45;12.73;;;;;;;7.18;100.00;102655.88;4920410;29;20024;-72
2022/03/23 07:12:13;;;;;;;22.25;11.27;;;;;;;6.95;100.00;102662.19;4920653;29;20426;-72
2022/03/23 07:14:58;;;;;;;16.05;9.77;;;;;;;7.03;98.95;102657.22;4920703;29;20059;-72
2022/03/23 07:17:44;;;;;;;19.23;10.52;;;;;;;7.11;97.26;102658.31;4921260;29;20047;-72
2022/03/23 07:20:30;;;;;;;22.65;10.90;;;;;;;7.31;99.66;102671.00;4920076;29;20028;-71
2022/03/23 07:23:16;;;;;;;21.50;11.80;;;;;;;7.70;89.48;102656.41;4920660;29;20047;-74
2022/03/23 07:26:03;;;;;;;22.10;10.95;;;;;;;7.85;84.79;102648.06;4919969;29;20044;-73
2022/03/23 07:28:49;;;;;;;17.90;10.35;;;;;;;8.10;81.34;102653.91;4920754;29;20063;-72
2022/03/23 07:31:35;;;;;;;22.52;10.93;;;;;;;7.97;78.82;102645.75;4920043;29;20039;-80
2022/03/23 07:34:21;;;;;;;21.30;10.25;;;;;;;8.10;75.70;102646.06;4920090;29;20043;-73
2022/03/23 07:37:07;;;;;;;21.33;10.65;;;;;;;8.59;74.14;102648.06;4919953;29;20036;-73
2022/03/23 07:39:52;;;;;;;21.85;11.57;;;;;;;8.73;72.79;102644.88;4920410;29;20032;-72
2022/03/23 07:42:38;;;;;;;21.88;10.20;;;;;;;8.93;69.23;102638.31;4906541;29;20401;-72
2022/03/23 07:45:24;;;;;;;20.88;11.70;;;;;;;8.84;66.57;102645.13;4906668;29;20039;-73
2022/03/23 07:48:10;;;;;;;16.55;8.93;;;;;;;9.25;64.37;102639.81;4920061;29;20120;-73
2022/03/23 07:50:55;;;;;;;16.95;9.38;;;;;;;9.31;63.55;102641.66;4920912;28;20136;-73
2022/03/23 07:53:41;;;;;;;16.58;9.10;;;;;;;8.88;62.19;102641.72;4920887;28;20367;-72
2022/03/23 07:56:27;;;;;;;16.20;8.90;;;;;;;9.51;62.28;102641.19;4920255;28;20054;-71
2022/03/23 07:59:13;;;;;;;13.52;8.10;;;;;;;9.62;59.32;102633.50;4907104;29;20028;-73
2022/03/23 08:01:59;;;;;;;13.65;8.23;;;;;;;9.79;58.68;102635.56;4919856;29;20116;-72
2022/03/23 08:04:44;;;;;;;17.85;8.85;;;;;;;9.90;57.60;102633.09;4919955;29;20118;-72
2022/03/23 08:07:30;;;;;;;18.75;7.93;;;;;;;9.84;57.45;102633.00;4919896;29;20377;-71
2022/03/23 08:10:16;;;;;;;12.57;7.93;;;;;;;10.36;56.47;102632.09;4919685;29;20364;-71
2022/03/23 08:13:03;;;;;;;18.00;9.23;;;;;;;10.35;55.61;102632.91;4918574;29;20036;-71
2022/03/23 08:15:49;;;;;;;16.00;8.95;;;;;;;10.23;55.03;102633.63;4919858;29;20047;-71
2022/03/23 08:18:35;;;;;;;13.50;9.02;;;;;;;10.57;53.93;102629.75;4919728;29;20031;-71
2022/03/23 08:21:22;;;;;;;15.35;8.60;;;;;;;10.35;54.34;102633.81;4918676;29;20028;-71
2022/03/23 08:24:08;;;;;;;16.75;9.15;;;;;;;10.96;52.16;102620.59;4920057;29;20381;-71
2022/03/23 08:26:54;;;;;;;16.40;9.00;;;;;;;11.17;50.43;102612.97;4919611;29;20099;-72
2022/03/23 08:29:40;;;;;;;17.83;9.63;;;;;;;11.59;49.92;102621.25;4920021;29;20119;-72
2022/03/23 08:32:26;;;;;;;27.17;14.90;;;;;;;11.24;49.84;102613.91;4919755;28;20042;-72
2022/03/23 08:35:11;;;;;;;17.13;10.00;;;;;;;11.85;48.45;102613.63;4919877;29;20040;-72
2022/03/23 08:37:58;;;;;;;19.92;9.25;;;;;;;12.12;46.80;102616.41;4918807;29;20028;-73
2022/03/23 08:40:45;;;;;;;18.05;8.82;;;;;;;11.90;46.56;102615.38;4919269;29;20024;-73
2022/03/23 08:43:30;;;;;;;15.88;8.43;;;;;;;12.13;45.97;102607.69;4918796;29;20024;-72
2022/03/23 08:46:16;;;;;;;14.43;8.25;;;;;;;12.63;43.46;102612.34;4919391;29;20095;-72
2022/03/23 08:49:02;;;;;;;14.30;6.55;;;;;;;11.85;41.90;102603.13;4919986;28;20479;-71
2022/03/23 08:51:48;;;;;;;11.85;6.97;;;;;;;13.06;41.60;102595.84;4906204;29;20043;-71
2022/03/23 08:54:33;;;;;;;13.15;7.50;;;;;;;13.08;41.07;102594.09;4918979;28;20058;-71
2022/03/23 08:57:19;;;;;;;13.45;7.38;;;;;;;12.78;40.85;102596.59;4920131;28;20054;-71
2022/03/23 09:00:07;;;;;;;22.55;7.07;;;;;;;13.19;40.60;102587.06;4919661;29;20365;-70
2022/03/23 09:02:53;;;;;;;21.98;9.63;;;;;;;13.16;39.65;102587.09;4918534;29;20061;-70
2022/03/23 09:05:40;;;;;;;11.55;6.45;;;;;;;13.11;39.89;102578.28;4905239;29;20426;-72
2022/03/23 09:08:26;;;;;;;9.82;5.72;;;;;;;13.13;39.76;102578.28;4918348;29;20110;-71
2022/03/23 09:11:12;;;;;;;13.40;6.05;;;;;;;12.98;39.31;102573.03;4905876;29;20032;-74
2022/03/23 09:13:58;;;;;;;9.57;5.90;;;;;;;13.10;39.67;102576.53;4918765;29;20084;-72
2022/03/23 09:16:44;;;;;;;10.40;6.18;;;;;;;13.35;39.46;102567.78;4920122;28;20044;-74
2022/03/23 09:19:29;;;;;;;11.65;5.47;;;;;;;12.80;39.42;102565.94;4919348;28;20024;-72
2022/03/23 09:22:15;;;;;;;12.20;5.95;;;;;;;13.44;39.33;102565.19;4919242;29;20024;-71
2022/03/23 09:25:03;;;;;;;10.70;6.20;;;;;;;13.37;39.06;102566.06;4920019;29;20028;-73
2022/03/23 09:27:50;;;;;;;13.85;6.20;;;;;;;12.86;39.11;102562.44;4923512;28;20042;-72
2022/03/23 09:30:35;;;;;;;10.13;5.75;;;;;;;13.53;39.40;102559.91;4923024;29;20035;-72
2022/03/23 09:33:21;;;;;;;9.70;6.13;;;;;;;13.28;38.27;102552.00;4922255;29;20102;-73
2022/03/23 09:37:47;;;;;;;12.55;5.80;;;;;;;13.46;38.29;102558.16;4923270;29;20035;-73
2022/03/23 09:39:13;;;;;;;10.40;6.32;;;;;;;13.26;39.53;102537.97;4922788;29;20046;-73
2022/03/23 09:41:59;;;;;;;12.10;5.88;;;;;;;13.19;39.00;102539.69;4908830;29;20055;-72
2022/03/23 09:44:48;;;;;;;14.63;6.10;;;;;;;13.49;39.15;102541.47;4923118;28;20111;-73
2022/03/23 09:47:36;;;;;;;10.95;5.75;;;;;;;13.66;38.95;102537.94;4908551;29;20023;-73
2022/03/23 09:50:27;;;;;;;9.88;6.32;;;;;;;13.78;38.56;102535.28;4922167;29;20027;-73
2022/03/23 09:53:13;;;;;;;16.20;6.75;;;;;;;13.56;38.60;102537.97;4922195;29;20170;-73
2022/03/23 09:55:59;;;;;;;14.95;5.80;;;;;;;13.54;38.94;102530.06;4922119;29;20032;-72
2022/03/23 09:58:45;;;;;;;13.32;6.13;;;;;;;13.24;38.72;102530.06;4923233;28;20107;-72
2022/03/23 10:01:31;;;;;;;14.65;6.22;;;;;;;13.63;38.46;102527.41;4908346;29;20039;-72
2022/03/23 10:04:20;;;;;;;11.82;6.03;;;;;;;13.60;38.38;102526.53;4922351;29;20038;-71
2022/03/23 10:07:31;;;;;;;12.48;6.07;;;;;;;14.13;38.14;102519.38;4922112;29;20051;-73
2022/03/23 10:10:19;;;;;;;14.48;6.65;;;;;;;14.07;37.76;102504.47;4922095;29;20039;-72
2022/03/23 10:13:36;;;;;;;30.60;15.52;;;;;;;13.96;37.67;102498.38;4907951;29;20105;-72
2022/03/23 10:16:43;;;;;;;12.20;5.50;;;;;;;14.26;36.61;102490.38;4921406;29;20059;-74
2022/03/23 10:19:29;;;;;;;10.95;4.82;;;;;;;13.44;36.26;102498.47;4908042;29;20474;-74
2022/03/23 10:22:15;;;;;;;12.18;5.40;;;;;;;13.45;36.63;102490.56;4922666;28;20028;-74
2022/03/23 10:25:10;;;;;;;9.73;5.63;;;;;;;14.31;36.10;102478.03;4921145;29;20043;-73
2022/03/23 10:27:56;;;;;;;16.70;6.03;;;;;;;14.19;35.93;102472.78;4921671;29;20036;-72
2022/03/23 10:30:45;;;;;;;11.80;5.32;;;;;;;14.47;35.18;102470.94;4908213;29;20063;-73
2022/03/23 10:33:31;;;;;;;15.65;5.43;;;;;;;13.53;35.55;102461.56;4921344;29;20028;-73
2022/03/23 10:36:18;;;;;;;11.10;5.47;;;;;;;13.78;35.67;102471.16;4921608;29;20031;-72
2022/03/23 10:39:10;;;;;;;10.85;5.65;;;;;;;13.94;35.24;102454.44;4921154;29;20459;-73
2022/03/23 10:42:05;;;;;;;11.00;5.50;;;;;;;13.95;34.64;102445.66;4921386;29;20095;-72
2022/03/23 10:45:10;;;;;;;12.30;5.55;;;;;;;14.37;34.42;102449.00;4907498;29;20104;-73
2022/03/23 10:48:07;;;;;;;13.48;5.63;;;;;;;14.18;33.58;102442.03;4908111;29;20043;-73
2022/03/23 10:50:56;;;;;;;10.73;6.00;;;;;;;14.07;34.62;102421.91;4922309;29;20024;-73
2022/03/23 10:53:43;;;;;;;14.35;6.03;;;;;;;14.49;34.28;102419.94;4921067;29;20051;-73
2022/03/23 10:56:36;;;;;;;12.70;5.72;;;;;;;14.05;33.11;102424.53;4920992;29;20402;-72
2022/03/23 10:59:25;;;;;;;11.75;6.93;;;;;;;14.30;33.36;102412.13;4921417;29;20036;-73
2022/03/23 11:02:11;;;;;;;13.65;6.85;;;;;;;14.87;32.63;102402.94;4921620;29;20043;-73
2022/03/23 11:04:57;;;;;;;10.85;6.07;;;;;;;15.32;32.64;102405.16;4907739;29;20454;-73
2022/03/23 11:07:43;;;;;;;8.15;5.45;;;;;;;15.28;32.07;102392.88;4921059;29;20032;-72
2022/03/23 11:16:46;;;;;;;9.82;5.70;;;;;;;15.19;32.73;102385.03;4922389;29;20028;-73
2022/03/23 11:19:32;;;;;;;10.55;6.53;;;;;;;15.84;32.17;102374.63;4921047;29;20028;-72
2022/03/23 11:22:18;;;;;;;10.60;5.28;;;;;;;15.72;31.13;102358.94;4907166;29;20363;-72
2022/03/23 11:25:04;;;;;;;9.25;5.22;;;;;;;15.17;31.72;102357.75;4921782;28;20032;-72
2022/03/23 11:27:50;;;;;;;9.85;5.57;;;;;;;15.66;31.56;102359.00;4921224;29;20449;-73
2022/03/23 11:30:37;;;;;;;11.85;5.78;;;;;;;15.25;31.68;102361.19;4907209;29;20028;-72
2022/03/23 11:33:25;;;;;;;9.30;6.13;;;;;;;15.34;31.17;102340.84;4920824;29;20047;-73
2022/03/23 11:36:12;;;;;;;12.60;5.93;;;;;;;15.51;31.94;102338.06;4906932;29;20069;-73
2022/03/23 11:39:01;;;;;;;7.80;5.43;;;;;;;16.22;31.08;102335.31;4920124;29;20119;-74
2022/03/23 11:41:48;;;;;;;13.32;5.20;;;;;;;15.80;30.58;102336.81;4920389;29;20036;-73
2022/03/23 11:44:37;;;;;;;10.98;5.60;;;;;;;16.29;30.35;102331.69;4919640;29;20032;-73
2022/03/23 11:47:31;;;;;;;11.15;5.82;;;;;;;16.13;30.08;102336.34;4920936;28;20449;-73
2022/03/23 11:50:57;;;;;;;9.57;5.50;;;;;;;15.77;30.37;102326.28;4906751;29;20122;-72
2022/03/23 11:54:16;;;;;;;17.58;7.90;;;;;;;16.01;30.33;102330.34;4906441;29;20036;-73
2022/03/23 11:57:02;;;;;;;8.13;4.88;;;;;;;16.10;30.10;102323.16;4919807;29;20405;-74
2022/03/23 11:59:48;;;;;;;9.07;5.10;;;;;;;16.51;29.71;102326.06;4920513;29;20047;-74
2022/03/23 12:02:41;;;;;;;12.13;5.32;;;;;;;16.96;29.32;102305.88;4920016;29;20067;-75
2022/03/23 12:05:31;;;;;;;8.57;4.78;;;;;;;16.96;28.98;102295.28;4906289;29;20087;-73
2022/03/23 12:08:43;;;;;;;8.38;4.55;;;;;;;16.48;29.29;102299.66;4919706;29;20044;-73
2022/03/23 12:11:41;;;;;;;12.10;4.95;;;;;;;16.74;28.64;102294.78;4919795;29;20032;-73
2022/03/23 12:14:36;;;;;;;12.25;4.57;;;;;;;16.83;28.27;102302.56;4918809;29;20123;-72
2022/03/23 12:17:30;;;;;;;7.45;5.05;;;;;;;16.59;29.10;102299.50;4906459;29;20043;-73
2022/03/23 12:20:16;;;;;;;8.25;4.90;;;;;;;16.81;28.23;102292.91;4919120;29;20027;-73
2022/03/23 12:23:11;;;;;;;7.95;4.60;;;;;;;16.95;28.52;102281.16;4919717;29;20024;-73
2022/03/23 12:26:12;;;;;;;8.80;4.68;;;;;;;17.10;29.08;102288.81;4919918;29;20107;-73
2022/03/23 12:29:04;;;;;;;9.52;4.75;;;;;;;16.96;28.18;102279.41;4920340;29;20036;-73
2022/03/23 12:32:01;;;;;;;10.20;4.80;;;;;;;16.49;27.57;102292.59;4919669;29;20059;-72
2022/03/23 12:34:51;;;;;;;9.50;4.60;;;;;;;16.67;27.72;102279.03;4920213;29;20031;-74
2022/03/23 12:37:39;;;;;;;10.88;5.10;;;;;;;16.77;27.49;102280.63;4919494;29;20063;-74
2022/03/23 12:40:37;;;;;;;7.32;4.28;;;;;;;16.09;27.23;102271.16;4906292;29;20028;-73
2022/03/23 12:43:42;;;;;;;10.10;4.75;;;;;;;16.71;27.43;102262.19;4918989;29;20039;-73
2022/03/23 12:46:28;;;;;;;9.85;4.60;;;;;;;16.63;27.22;102258.84;4919912;29;20115;-73
2022/03/23 12:58:42;;;;;;;7.07;4.20;;;;;;;16.04;28.31;102259.75;4918550;29;20446;-73
2022/03/23 13:01:30;;;;;;;9.38;4.70;;;;;;;16.47;28.58;102244.97;4919691;28;20446;-75
2022/03/23 13:04:40;;;;;;;9.20;5.03;;;;;;;16.27;28.44;102249.72;4919986;28;20036;-74
2022/03/23 13:07:29;;;;;;;9.10;4.57;;;;;;;16.64;27.96;102245.56;4919578;29;20024;-75
2022/03/23 13:10:15;;;;;;;9.25;4.68;;;;;;;16.36;27.94;102248.69;4919381;29;20065;-76
2022/03/23 13:13:08;;;;;;;9.10;4.78;;;;;;;16.36;27.92;102244.25;4917391;29;20036;-73
2022/03/23 13:15:54;;;;;;;9.45;4.53;;;;;;;16.54;27.69;102229.88;4919255;29;20080;-73
2022/03/23 13:18:41;;;;;;;9.02;4.05;;;;;;;16.07;28.22;102241.22;4918500;29;20039;-75